sensor_id;sensor_type;location;lat;lon;timestamp;temperature;humidity
64817;DHT22;69411;45.656;11.740;2024-03-17T00:00:38;12.30;76.60
64817;DHT22;69411;45.656;11.740;2024-03-17T00:03:06;12.20;76.60
64817;DHT22;69411;45.656;11.740;2024-03-17T00:05:35;12.20;76.70
64817;DHT22;69411;45.656;11.740;2024-03-17T00:08:02;12.20;76.60
64817;DHT22;69411;45.656;11.740;2024-03-17T00:10:31;12.10;76.60
64817;DHT22;69411;45.656;11.740;2024-03-17T00:12:57;12.10;76.60
64817;DHT22;69411;45.656;11.740;2024-03-17T00:15:24;12.00;76.70
64817;DHT22;69411;45.656;11.740;2024-03-17T00:17:50;12.00;76.80
64817;DHT22;69411;45.656;11.740;2024-03-17T00:20:16;11.90;76.80
64817;DHT22;69411;45.656;11.740;2024-03-17T00:22:50;11.90;76.90
64817;DHT22;69411;45.656;11.740;2024-03-17T00:25:18;11.90;77.30
64817;DHT22;69411;45.656;11.740;2024-03-17T00:27:45;11.70;77.40
64817;DHT22;69411;45.656;11.740;2024-03-17T00:30:12;11.60;77.30
64817;DHT22;69411;45.656;11.740;2024-03-17T00:32:42;11.50;77.40
64817;DHT22;69411;45.656;11.740;2024-03-17T00:35:09;11.50;77.50
64817;DHT22;69411;45.656;11.740;2024-03-17T00:37:37;11.50;77.80
64817;DHT22;69411;45.656;11.740;2024-03-17T00:40:03;11.40;77.60
64817;DHT22;69411;45.656;11.740;2024-03-17T00:42:30;11.40;78.20
64817;DHT22;69411;45.656;11.740;2024-03-17T00:44:56;11.30;77.70
64817;DHT22;69411;45.656;11.740;2024-03-17T00:47:22;11.30;78.20
64817;DHT22;69411;45.656;11.740;2024-03-17T00:49:48;11.30;78.10
64817;DHT22;69411;45.656;11.740;2024-03-17T00:52:16;11.30;78.20
64817;DHT22;69411;45.656;11.740;2024-03-17T00:54:42;11.40;78.40
64817;DHT22;69411;45.656;11.740;2024-03-17T00:57:08;11.30;78.10
64817;DHT22;69411;45.656;11.740;2024-03-17T00:59:34;11.40;78.00
64817;DHT22;69411;45.656;11.740;2024-03-17T01:02:00;11.40;78.00
64817;DHT22;69411;45.656;11.740;2024-03-17T01:04:26;11.40;77.90
64817;DHT22;69411;45.656;11.740;2024-03-17T01:06:52;11.40;77.80
64817;DHT22;69411;45.656;11.740;2024-03-17T01:09:18;11.40;77.50
64817;DHT22;69411;45.656;11.740;2024-03-17T01:11:44;11.40;77.60
64817;DHT22;69411;45.656;11.740;2024-03-17T01:14:10;11.40;77.60
64817;DHT22;69411;45.656;11.740;2024-03-17T01:16:36;11.40;77.50
64817;DHT22;69411;45.656;11.740;2024-03-17T01:19:02;11.40;77.60
64817;DHT22;69411;45.656;11.740;2024-03-17T01:21:28;11.40;77.50
64817;DHT22;69411;45.656;11.740;2024-03-17T01:23:54;11.30;77.30
64817;DHT22;69411;45.656;11.740;2024-03-17T01:26:20;11.30;77.40
64817;DHT22;69411;45.656;11.740;2024-03-17T01:28:46;11.30;77.30
64817;DHT22;69411;45.656;11.740;2024-03-17T01:31:12;11.30;77.30
64817;DHT22;69411;45.656;11.740;2024-03-17T01:33:39;11.30;77.30
64817;DHT22;69411;45.656;11.740;2024-03-17T01:36:06;11.30;77.30
64817;DHT22;69411;45.656;11.740;2024-03-17T01:38:32;11.30;77.30
64817;DHT22;69411;45.656;11.740;2024-03-17T01:40:58;11.20;77.20
64817;DHT22;69411;45.656;11.740;2024-03-17T01:43:26;11.20;77.30
64817;DHT22;69411;45.656;11.740;2024-03-17T01:45:52;11.20;77.20
64817;DHT22;69411;45.656;11.740;2024-03-17T01:48:18;11.20;77.20
64817;DHT22;69411;45.656;11.740;2024-03-17T01:50:45;11.20;77.20
64817;DHT22;69411;45.656;11.740;2024-03-17T01:53:14;11.10;77.20
64817;DHT22;69411;45.656;11.740;2024-03-17T01:55:43;11.10;77.10
64817;DHT22;69411;45.656;11.740;2024-03-17T01:58:10;11.10;77.20
64817;DHT22;69411;45.656;11.740;2024-03-17T02:00:36;11.10;77.20
64817;DHT22;69411;45.656;11.740;2024-03-17T02:03:07;11.10;77.10
64817;DHT22;69411;45.656;11.740;2024-03-17T02:05:40;11.00;77.30
64817;DHT22;69411;45.656;11.740;2024-03-17T02:08:07;11.00;77.20
64817;DHT22;69411;45.656;11.740;2024-03-17T02:10:33;10.90;77.10
64817;DHT22;69411;45.656;11.740;2024-03-17T02:13:00;10.90;77.10
64817;DHT22;69411;45.656;11.740;2024-03-17T02:15:27;10.90;77.10
64817;DHT22;69411;45.656;11.740;2024-03-17T02:17:53;10.90;77.20
64817;DHT22;69411;45.656;11.740;2024-03-17T02:20:19;10.80;77.30
64817;DHT22;69411;45.656;11.740;2024-03-17T02:22:45;10.80;77.30
64817;DHT22;69411;45.656;11.740;2024-03-17T02:25:11;10.80;77.40
64817;DHT22;69411;45.656;11.740;2024-03-17T02:27:37;10.80;77.50
64817;DHT22;69411;45.656;11.740;2024-03-17T02:30:04;10.80;77.50
64817;DHT22;69411;45.656;11.740;2024-03-17T02:32:35;10.80;77.40
64817;DHT22;69411;45.656;11.740;2024-03-17T02:35:02;10.80;77.40
64817;DHT22;69411;45.656;11.740;2024-03-17T02:37:28;10.70;77.30
64817;DHT22;69411;45.656;11.740;2024-03-17T02:39:54;10.70;77.50
64817;DHT22;69411;45.656;11.740;2024-03-17T02:42:20;10.70;77.50
64817;DHT22;69411;45.656;11.740;2024-03-17T02:44:46;10.70;77.50
64817;DHT22;69411;45.656;11.740;2024-03-17T02:47:12;10.70;77.50
64817;DHT22;69411;45.656;11.740;2024-03-17T02:49:40;10.70;77.50
64817;DHT22;69411;45.656;11.740;2024-03-17T02:52:10;10.70;77.40
64817;DHT22;69411;45.656;11.740;2024-03-17T02:54:36;10.60;77.40
64817;DHT22;69411;45.656;11.740;2024-03-17T02:57:03;10.60;77.50
64817;DHT22;69411;45.656;11.740;2024-03-17T02:59:29;10.60;77.60
64817;DHT22;69411;45.656;11.740;2024-03-17T03:01:55;10.60;77.70
64817;DHT22;69411;45.656;11.740;2024-03-17T03:04:21;10.50;77.80
64817;DHT22;69411;45.656;11.740;2024-03-17T03:06:47;10.40;77.70
64817;DHT22;69411;45.656;11.740;2024-03-17T03:09:13;10.40;77.80
64817;DHT22;69411;45.656;11.740;2024-03-17T03:11:43;10.40;77.80
64817;DHT22;69411;45.656;11.740;2024-03-17T03:14:09;10.40;77.80
64817;DHT22;69411;45.656;11.740;2024-03-17T03:16:35;10.40;78.00
64817;DHT22;69411;45.656;11.740;2024-03-17T03:19:01;10.40;77.70
64817;DHT22;69411;45.656;11.740;2024-03-17T03:21:27;10.30;77.90
64817;DHT22;69411;45.656;11.740;2024-03-17T03:23:53;10.30;78.00
64817;DHT22;69411;45.656;11.740;2024-03-17T03:26:19;10.30;78.00
64817;DHT22;69411;45.656;11.740;2024-03-17T03:28:45;10.40;77.90
64817;DHT22;69411;45.656;11.740;2024-03-17T03:31:11;10.40;77.90
64817;DHT22;69411;45.656;11.740;2024-03-17T03:33:41;10.30;77.80
64817;DHT22;69411;45.656;11.740;2024-03-17T03:36:11;10.30;77.90
64817;DHT22;69411;45.656;11.740;2024-03-17T03:38:38;10.30;77.90
64817;DHT22;69411;45.656;11.740;2024-03-17T03:41:08;10.30;78.00
64817;DHT22;69411;45.656;11.740;2024-03-17T03:43:35;10.20;77.90
64817;DHT22;69411;45.656;11.740;2024-03-17T03:46:02;10.20;77.80
64817;DHT22;69411;45.656;11.740;2024-03-17T03:48:28;10.20;78.00
64817;DHT22;69411;45.656;11.740;2024-03-17T03:50:54;10.30;78.10
64817;DHT22;69411;45.656;11.740;2024-03-17T03:53:20;10.20;77.90
64817;DHT22;69411;45.656;11.740;2024-03-17T03:55:46;10.20;78.10
64817;DHT22;69411;45.656;11.740;2024-03-17T03:58:13;10.20;78.20
64817;DHT22;69411;45.656;11.740;2024-03-17T04:00:39;10.20;78.20
64817;DHT22;69411;45.656;11.740;2024-03-17T04:03:05;10.20;78.30
64817;DHT22;69411;45.656;11.740;2024-03-17T04:05:31;10.20;78.20
64817;DHT22;69411;45.656;11.740;2024-03-17T04:07:58;10.20;78.40
64817;DHT22;69411;45.656;11.740;2024-03-17T04:10:24;10.20;78.30
64817;DHT22;69411;45.656;11.740;2024-03-17T04:12:51;10.20;78.30
64817;DHT22;69411;45.656;11.740;2024-03-17T04:15:17;10.20;78.30
64817;DHT22;69411;45.656;11.740;2024-03-17T04:17:43;10.10;78.50
64817;DHT22;69411;45.656;11.740;2024-03-17T04:20:10;10.10;78.60
64817;DHT22;69411;45.656;11.740;2024-03-17T04:22:39;10.00;78.70
64817;DHT22;69411;45.656;11.740;2024-03-17T04:25:06;10.00;78.70
64817;DHT22;69411;45.656;11.740;2024-03-17T04:27:32;10.00;78.90
64817;DHT22;69411;45.656;11.740;2024-03-17T04:30:00;10.00;78.70
64817;DHT22;69411;45.656;11.740;2024-03-17T04:32:27;9.90;78.60
64817;DHT22;69411;45.656;11.740;2024-03-17T04:34:53;10.00;78.50
64817;DHT22;69411;45.656;11.740;2024-03-17T04:37:19;10.00;78.60
64817;DHT22;69411;45.656;11.740;2024-03-17T04:39:46;10.00;78.60
64817;DHT22;69411;45.656;11.740;2024-03-17T04:42:13;10.00;78.60
64817;DHT22;69411;45.656;11.740;2024-03-17T04:44:40;10.00;78.50
64817;DHT22;69411;45.656;11.740;2024-03-17T04:47:06;10.00;78.40
64817;DHT22;69411;45.656;11.740;2024-03-17T04:49:40;10.00;78.30
64817;DHT22;69411;45.656;11.740;2024-03-17T04:52:06;10.00;78.30
64817;DHT22;69411;45.656;11.740;2024-03-17T04:54:33;10.00;78.30
64817;DHT22;69411;45.656;11.740;2024-03-17T04:57:00;10.00;78.30
64817;DHT22;69411;45.656;11.740;2024-03-17T04:59:26;10.10;78.40
64817;DHT22;69411;45.656;11.740;2024-03-17T05:01:53;10.00;78.10
64817;DHT22;69411;45.656;11.740;2024-03-17T05:04:19;10.00;78.00
64817;DHT22;69411;45.656;11.740;2024-03-17T05:06:46;10.00;78.20
64817;DHT22;69411;45.656;11.740;2024-03-17T05:09:15;9.90;78.10
64817;DHT22;69411;45.656;11.740;2024-03-17T05:11:42;9.90;78.00
64817;DHT22;69411;45.656;11.740;2024-03-17T05:14:08;9.90;78.10
64817;DHT22;69411;45.656;11.740;2024-03-17T05:16:34;9.90;78.20
64817;DHT22;69411;45.656;11.740;2024-03-17T05:19:00;9.90;78.20
64817;DHT22;69411;45.656;11.740;2024-03-17T05:21:27;9.90;78.30
64817;DHT22;69411;45.656;11.740;2024-03-17T05:23:56;9.90;78.30
64817;DHT22;69411;45.656;11.740;2024-03-17T05:26:27;9.90;78.40
64817;DHT22;69411;45.656;11.740;2024-03-17T05:28:54;9.90;78.30
64817;DHT22;69411;45.656;11.740;2024-03-17T05:31:20;9.90;78.20
64817;DHT22;69411;45.656;11.740;2024-03-17T05:33:48;9.90;78.20
64817;DHT22;69411;45.656;11.740;2024-03-17T05:36:14;9.90;78.40
64817;DHT22;69411;45.656;11.740;2024-03-17T05:38:40;9.90;78.40
64817;DHT22;69411;45.656;11.740;2024-03-17T05:41:07;9.90;78.40
64817;DHT22;69411;45.656;11.740;2024-03-17T05:43:35;9.90;78.40
64817;DHT22;69411;45.656;11.740;2024-03-17T05:46:02;9.90;78.40
64817;DHT22;69411;45.656;11.740;2024-03-17T05:48:28;9.90;78.40
64817;DHT22;69411;45.656;11.740;2024-03-17T05:50:55;9.90;78.50
64817;DHT22;69411;45.656;11.740;2024-03-17T05:53:22;9.90;78.50
64817;DHT22;69411;45.656;11.740;2024-03-17T05:55:50;9.90;78.50
64817;DHT22;69411;45.656;11.740;2024-03-17T05:58:16;9.90;78.60
64817;DHT22;69411;45.656;11.740;2024-03-17T06:00:42;9.90;78.70
64817;DHT22;69411;45.656;11.740;2024-03-17T06:03:09;9.90;78.80
64817;DHT22;69411;45.656;11.740;2024-03-17T06:05:36;10.00;78.90
64817;DHT22;69411;45.656;11.740;2024-03-17T06:08:04;10.00;79.00
64817;DHT22;69411;45.656;11.740;2024-03-17T06:10:32;10.20;79.20
64817;DHT22;69411;45.656;11.740;2024-03-17T06:12:58;10.20;79.00
64817;DHT22;69411;45.656;11.740;2024-03-17T06:15:24;10.30;79.10
64817;DHT22;69411;45.656;11.740;2024-03-17T06:17:51;10.40;78.80
64817;DHT22;69411;45.656;11.740;2024-03-17T06:20:24;10.40;78.90
64817;DHT22;69411;45.656;11.740;2024-03-17T06:22:53;10.50;79.00
64817;DHT22;69411;45.656;11.740;2024-03-17T06:25:19;10.50;78.80
64817;DHT22;69411;45.656;11.740;2024-03-17T06:27:45;10.60;78.80
64817;DHT22;69411;45.656;11.740;2024-03-17T06:30:14;10.70;79.00
64817;DHT22;69411;45.656;11.740;2024-03-17T06:32:44;10.70;78.90
64817;DHT22;69411;45.656;11.740;2024-03-17T06:35:14;10.80;78.80
64817;DHT22;69411;45.656;11.740;2024-03-17T06:37:51;10.90;79.00
64817;DHT22;69411;45.656;11.740;2024-03-17T06:40:18;10.90;79.20
64817;DHT22;69411;45.656;11.740;2024-03-17T06:42:45;11.00;79.20
64817;DHT22;69411;45.656;11.740;2024-03-17T06:45:11;11.10;79.20
64817;DHT22;69411;45.656;11.740;2024-03-17T06:47:38;11.20;79.00
64817;DHT22;69411;45.656;11.740;2024-03-17T06:50:05;11.40;79.30
64817;DHT22;69411;45.656;11.740;2024-03-17T06:52:32;11.40;79.00
64817;DHT22;69411;45.656;11.740;2024-03-17T06:54:58;11.60;78.80
64817;DHT22;69411;45.656;11.740;2024-03-17T06:57:24;11.70;78.70
64817;DHT22;69411;45.656;11.740;2024-03-17T06:59:51;11.90;78.60
64817;DHT22;69411;45.656;11.740;2024-03-17T07:02:17;12.00;78.50
64817;DHT22;69411;45.656;11.740;2024-03-17T07:04:46;12.10;78.30
64817;DHT22;69411;45.656;11.740;2024-03-17T07:07:12;12.20;78.10
64817;DHT22;69411;45.656;11.740;2024-03-17T07:09:40;12.40;78.10
64817;DHT22;69411;45.656;11.740;2024-03-17T07:12:10;12.40;78.00
64817;DHT22;69411;45.656;11.740;2024-03-17T07:14:37;12.50;77.90
64817;DHT22;69411;45.656;11.740;2024-03-17T07:17:03;12.60;77.70
64817;DHT22;69411;45.656;11.740;2024-03-17T07:19:30;12.80;77.50
64817;DHT22;69411;45.656;11.740;2024-03-17T07:21:57;12.80;77.50
64817;DHT22;69411;45.656;11.740;2024-03-17T07:24:23;12.90;77.40
64817;DHT22;69411;45.656;11.740;2024-03-17T07:26:49;12.90;77.20
64817;DHT22;69411;45.656;11.740;2024-03-17T07:29:16;12.90;77.00
64817;DHT22;69411;45.656;11.740;2024-03-17T07:31:42;12.90;76.70
64817;DHT22;69411;45.656;11.740;2024-03-17T07:34:08;13.00;76.60
64817;DHT22;69411;45.656;11.740;2024-03-17T07:36:35;13.00;76.40
64817;DHT22;69411;45.656;11.740;2024-03-17T07:39:00;13.00;76.70
64817;DHT22;69411;45.656;11.740;2024-03-17T07:41:27;13.10;76.80
64817;DHT22;69411;45.656;11.740;2024-03-17T07:43:53;13.00;77.00
64817;DHT22;69411;45.656;11.740;2024-03-17T07:46:19;13.10;76.80
64817;DHT22;69411;45.656;11.740;2024-03-17T07:48:45;13.10;77.10
64817;DHT22;69411;45.656;11.740;2024-03-17T07:51:13;13.10;77.00
64817;DHT22;69411;45.656;11.740;2024-03-17T07:53:41;13.20;77.10
64817;DHT22;69411;45.656;11.740;2024-03-17T07:56:08;13.20;77.10
64817;DHT22;69411;45.656;11.740;2024-03-17T07:58:42;13.20;77.10
64817;DHT22;69411;45.656;11.740;2024-03-17T08:01:12;13.20;76.80
64817;DHT22;69411;45.656;11.740;2024-03-17T08:03:41;13.20;76.50
64817;DHT22;69411;45.656;11.740;2024-03-17T08:06:08;13.30;76.70
64817;DHT22;69411;45.656;11.740;2024-03-17T08:08:34;13.30;76.60
64817;DHT22;69411;45.656;11.740;2024-03-17T08:11:01;13.40;76.50
64817;DHT22;69411;45.656;11.740;2024-03-17T08:13:30;13.40;76.40
64817;DHT22;69411;45.656;11.740;2024-03-17T08:16:09;13.50;76.40
64817;DHT22;69411;45.656;11.740;2024-03-17T08:18:35;13.50;76.30
64817;DHT22;69411;45.656;11.740;2024-03-17T08:21:02;13.60;76.40
64817;DHT22;69411;45.656;11.740;2024-03-17T08:23:34;13.60;76.50
64817;DHT22;69411;45.656;11.740;2024-03-17T08:26:04;13.70;76.70
64817;DHT22;69411;45.656;11.740;2024-03-17T08:28:30;13.80;76.80
64817;DHT22;69411;45.656;11.740;2024-03-17T08:30:58;13.90;76.80
64817;DHT22;69411;45.656;11.740;2024-03-17T08:33:25;14.00;76.50
64817;DHT22;69411;45.656;11.740;2024-03-17T08:36:02;14.00;76.60
64817;DHT22;69411;45.656;11.740;2024-03-17T08:38:30;14.10;76.50
64817;DHT22;69411;45.656;11.740;2024-03-17T08:40:57;14.30;76.30
64817;DHT22;69411;45.656;11.740;2024-03-17T08:43:24;14.40;76.20
64817;DHT22;69411;45.656;11.740;2024-03-17T08:48:30;14.80;75.60
64817;DHT22;69411;45.656;11.740;2024-03-17T08:50:57;15.00;75.00
64817;DHT22;69411;45.656;11.740;2024-03-17T08:53:24;15.00;74.60
64817;DHT22;69411;45.656;11.740;2024-03-17T08:55:50;15.20;74.50
64817;DHT22;69411;45.656;11.740;2024-03-17T08:58:17;15.30;74.30
64817;DHT22;69411;45.656;11.740;2024-03-17T09:00:43;15.40;73.90
64817;DHT22;69411;45.656;11.740;2024-03-17T09:03:09;15.50;73.30
64817;DHT22;69411;45.656;11.740;2024-03-17T09:05:40;15.60;72.70
64817;DHT22;69411;45.656;11.740;2024-03-17T09:08:07;15.70;73.30
64817;DHT22;69411;45.656;11.740;2024-03-17T09:10:42;15.90;72.30
64817;DHT22;69411;45.656;11.740;2024-03-17T09:13:17;15.90;72.30
64817;DHT22;69411;45.656;11.740;2024-03-17T09:15:59;16.10;71.70
64817;DHT22;69411;45.656;11.740;2024-03-17T09:18:29;16.20;71.00
64817;DHT22;69411;45.656;11.740;2024-03-17T09:21:01;16.20;70.60
64817;DHT22;69411;45.656;11.740;2024-03-17T09:23:28;16.40;71.10
64817;DHT22;69411;45.656;11.740;2024-03-17T09:26:04;16.50;70.60
64817;DHT22;69411;45.656;11.740;2024-03-17T09:28:31;16.60;71.00
64817;DHT22;69411;45.656;11.740;2024-03-17T09:30:58;16.80;70.10
64817;DHT22;69411;45.656;11.740;2024-03-17T09:33:25;16.90;70.10
64817;DHT22;69411;45.656;11.740;2024-03-17T09:35:58;17.10;69.50
64817;DHT22;69411;45.656;11.740;2024-03-17T09:38:24;17.20;69.60
64817;DHT22;69411;45.656;11.740;2024-03-17T09:40:51;17.20;69.30
64817;DHT22;69411;45.656;11.740;2024-03-17T09:43:20;17.30;67.50
64817;DHT22;69411;45.656;11.740;2024-03-17T09:45:46;17.30;67.90
64817;DHT22;69411;45.656;11.740;2024-03-17T09:48:16;17.30;68.60
64817;DHT22;69411;45.656;11.740;2024-03-17T09:50:56;17.30;68.50
64817;DHT22;69411;45.656;11.740;2024-03-17T09:53:24;17.40;68.00
64817;DHT22;69411;45.656;11.740;2024-03-17T09:55:52;17.40;67.80
64817;DHT22;69411;45.656;11.740;2024-03-17T09:58:19;17.40;67.90
64817;DHT22;69411;45.656;11.740;2024-03-17T10:00:46;17.50;67.80
64817;DHT22;69411;45.656;11.740;2024-03-17T10:03:12;17.60;67.60
64817;DHT22;69411;45.656;11.740;2024-03-17T10:06:01;17.70;67.20
64817;DHT22;69411;45.656;11.740;2024-03-17T10:08:27;17.80;67.20
64817;DHT22;69411;45.656;11.740;2024-03-17T10:10:53;17.80;66.60
64817;DHT22;69411;45.656;11.740;2024-03-17T10:13:19;17.80;66.90
64817;DHT22;69411;45.656;11.740;2024-03-17T10:15:49;17.90;67.20
64817;DHT22;69411;45.656;11.740;2024-03-17T10:18:21;17.90;67.10
64817;DHT22;69411;45.656;11.740;2024-03-17T10:20:48;18.00;66.60
64817;DHT22;69411;45.656;11.740;2024-03-17T10:23:18;18.00;65.80
64817;DHT22;69411;45.656;11.740;2024-03-17T10:25:45;18.10;65.80
64817;DHT22;69411;45.656;11.740;2024-03-17T10:28:12;18.20;65.50
64817;DHT22;69411;45.656;11.740;2024-03-17T10:30:39;18.20;65.20
64817;DHT22;69411;45.656;11.740;2024-03-17T10:33:07;18.30;65.20
64817;DHT22;69411;45.656;11.740;2024-03-17T10:35:38;18.20;65.60
64817;DHT22;69411;45.656;11.740;2024-03-17T10:38:05;18.30;65.60
64817;DHT22;69411;45.656;11.740;2024-03-17T10:40:32;18.30;65.10
64817;DHT22;69411;45.656;11.740;2024-03-17T10:43:01;18.40;65.80
64817;DHT22;69411;45.656;11.740;2024-03-17T10:45:28;18.40;65.80
64817;DHT22;69411;45.656;11.740;2024-03-17T10:48:02;18.50;65.30
64817;DHT22;69411;45.656;11.740;2024-03-17T10:50:38;18.60;65.20
64817;DHT22;69411;45.656;11.740;2024-03-17T10:53:06;18.60;65.00
64817;DHT22;69411;45.656;11.740;2024-03-17T10:55:45;18.60;64.70
64817;DHT22;69411;45.656;11.740;2024-03-17T10:58:43;18.60;65.00
64817;DHT22;69411;45.656;11.740;2024-03-17T11:01:14;18.70;64.50
64817;DHT22;69411;45.656;11.740;2024-03-17T11:03:41;18.70;64.80
64817;DHT22;69411;45.656;11.740;2024-03-17T11:06:09;18.80;64.90
64817;DHT22;69411;45.656;11.740;2024-03-17T11:08:37;18.80;64.80
64817;DHT22;69411;45.656;11.740;2024-03-17T11:11:04;18.80;64.50
64817;DHT22;69411;45.656;11.740;2024-03-17T11:13:31;18.80;64.80
64817;DHT22;69411;45.656;11.740;2024-03-17T11:15:58;18.80;65.00
64817;DHT22;69411;45.656;11.740;2024-03-17T11:23:42;18.90;64.60
64817;DHT22;69411;45.656;11.740;2024-03-17T11:26:09;18.90;65.00
64817;DHT22;69411;45.656;11.740;2024-03-17T11:28:50;19.00;65.00
64817;DHT22;69411;45.656;11.740;2024-03-17T11:31:40;19.00;65.00
64817;DHT22;69411;45.656;11.740;2024-03-17T11:34:29;19.00;64.40
64817;DHT22;69411;45.656;11.740;2024-03-17T11:36:57;19.00;63.80
64817;DHT22;69411;45.656;11.740;2024-03-17T11:39:48;19.00;64.80
64817;DHT22;69411;45.656;11.740;2024-03-17T11:42:35;19.20;64.60
64817;DHT22;69411;45.656;11.740;2024-03-17T11:45:04;19.20;64.80
64817;DHT22;69411;45.656;11.740;2024-03-17T11:47:37;19.20;64.90
64817;DHT22;69411;45.656;11.740;2024-03-17T11:50:06;19.20;64.80
64817;DHT22;69411;45.656;11.740;2024-03-17T11:52:33;19.30;64.70
64817;DHT22;69411;45.656;11.740;2024-03-17T11:54:59;19.40;64.30
64817;DHT22;69411;45.656;11.740;2024-03-17T11:57:26;19.40;63.70
64817;DHT22;69411;45.656;11.740;2024-03-17T11:59:55;19.40;63.60
64817;DHT22;69411;45.656;11.740;2024-03-17T12:02:30;19.40;63.50
64817;DHT22;69411;45.656;11.740;2024-03-17T12:04:58;19.50;63.40
64817;DHT22;69411;45.656;11.740;2024-03-17T12:07:25;19.50;62.00
64817;DHT22;69411;45.656;11.740;2024-03-17T12:09:55;19.50;62.30
64817;DHT22;69411;45.656;11.740;2024-03-17T12:12:24;19.50;62.90
64817;DHT22;69411;45.656;11.740;2024-03-17T12:14:51;19.50;62.60
64817;DHT22;69411;45.656;11.740;2024-03-17T12:17:22;19.60;62.50
64817;DHT22;69411;45.656;11.740;2024-03-17T12:19:48;19.60;62.60
64817;DHT22;69411;45.656;11.740;2024-03-17T12:22:18;19.70;62.50
64817;DHT22;69411;45.656;11.740;2024-03-17T12:24:53;19.70;63.00
64817;DHT22;69411;45.656;11.740;2024-03-17T12:27:21;19.70;62.50
64817;DHT22;69411;45.656;11.740;2024-03-17T12:29:49;19.90;62.50
64817;DHT22;69411;45.656;11.740;2024-03-17T12:32:33;19.90;62.40
64817;DHT22;69411;45.656;11.740;2024-03-17T12:34:59;19.90;61.60
64817;DHT22;69411;45.656;11.740;2024-03-17T12:37:27;20.00;61.80
64817;DHT22;69411;45.656;11.740;2024-03-17T12:40:01;20.10;61.80
64817;DHT22;69411;45.656;11.740;2024-03-17T12:42:29;20.10;61.50
64817;DHT22;69411;45.656;11.740;2024-03-17T12:44:56;20.20;61.30
64817;DHT22;69411;45.656;11.740;2024-03-17T12:47:28;20.30;60.90
64817;DHT22;69411;45.656;11.740;2024-03-17T12:49:55;20.30;61.00
64817;DHT22;69411;45.656;11.740;2024-03-17T12:52:29;20.40;61.40
64817;DHT22;69411;45.656;11.740;2024-03-17T12:55:09;20.40;61.00
64817;DHT22;69411;45.656;11.740;2024-03-17T13:01:00;20.30;60.40
64817;DHT22;69411;45.656;11.740;2024-03-17T13:03:29;20.40;59.70
64817;DHT22;69411;45.656;11.740;2024-03-17T13:05:57;20.40;60.60
64817;DHT22;69411;45.656;11.740;2024-03-17T13:08:23;20.40;60.30
64817;DHT22;69411;45.656;11.740;2024-03-17T13:10:51;20.40;60.30
64817;DHT22;69411;45.656;11.740;2024-03-17T13:13:17;20.40;59.90
64817;DHT22;69411;45.656;11.740;2024-03-17T13:15:43;20.40;60.10
64817;DHT22;69411;45.656;11.740;2024-03-17T13:18:18;20.40;59.90
64817;DHT22;69411;45.656;11.740;2024-03-17T13:20:48;20.40;60.20
64817;DHT22;69411;45.656;11.740;2024-03-17T13:23:15;20.40;60.00
64817;DHT22;69411;45.656;11.740;2024-03-17T13:25:41;20.40;59.50
64817;DHT22;69411;45.656;11.740;2024-03-17T13:28:09;20.30;59.90
64817;DHT22;69411;45.656;11.740;2024-03-17T13:30:36;20.30;60.00
64817;DHT22;69411;45.656;11.740;2024-03-17T13:33:03;20.20;59.90
64817;DHT22;69411;45.656;11.740;2024-03-17T13:35:40;20.20;60.10
64817;DHT22;69411;45.656;11.740;2024-03-17T13:38:08;20.10;60.10
64817;DHT22;69411;45.656;11.740;2024-03-17T13:40:35;20.20;60.90
64817;DHT22;69411;45.656;11.740;2024-03-17T13:43:01;20.20;60.70
64817;DHT22;69411;45.656;11.740;2024-03-17T13:45:34;20.20;59.80
64817;DHT22;69411;45.656;11.740;2024-03-17T13:48:04;20.20;59.80
64817;DHT22;69411;45.656;11.740;2024-03-17T13:50:30;20.30;59.50
64817;DHT22;69411;45.656;11.740;2024-03-17T13:52:57;20.30;59.20
64817;DHT22;69411;45.656;11.740;2024-03-17T13:55:24;20.30;59.30
64817;DHT22;69411;45.656;11.740;2024-03-17T13:57:52;20.30;59.50
64817;DHT22;69411;45.656;11.740;2024-03-17T14:00:23;20.30;59.10
64817;DHT22;69411;45.656;11.740;2024-03-17T14:02:50;20.20;58.70
64817;DHT22;69411;45.656;11.740;2024-03-17T14:05:19;20.10;59.50
64817;DHT22;69411;45.656;11.740;2024-03-17T14:07:45;20.10;60.00
64817;DHT22;69411;45.656;11.740;2024-03-17T14:10:16;20.10;60.00
64817;DHT22;69411;45.656;11.740;2024-03-17T14:12:43;20.10;60.10
64817;DHT22;69411;45.656;11.740;2024-03-17T14:15:10;20.10;59.90
64817;DHT22;69411;45.656;11.740;2024-03-17T14:17:37;20.10;60.10
64817;DHT22;69411;45.656;11.740;2024-03-17T14:20:05;20.10;60.00
64817;DHT22;69411;45.656;11.740;2024-03-17T14:22:41;20.00;59.80
64817;DHT22;69411;45.656;11.740;2024-03-17T14:25:17;19.90;60.10
64817;DHT22;69411;45.656;11.740;2024-03-17T14:27:44;19.90;60.00
64817;DHT22;69411;45.656;11.740;2024-03-17T14:30:14;20.00;60.10
64817;DHT22;69411;45.656;11.740;2024-03-17T14:32:40;19.90;60.20
64817;DHT22;69411;45.656;11.740;2024-03-17T14:35:10;19.80;59.90
64817;DHT22;69411;45.656;11.740;2024-03-17T14:37:38;19.70;60.30
64817;DHT22;69411;45.656;11.740;2024-03-17T14:40:04;19.70;60.50
64817;DHT22;69411;45.656;11.740;2024-03-17T14:42:37;19.60;60.90
64817;DHT22;69411;45.656;11.740;2024-03-17T14:45:03;19.60;61.00
64817;DHT22;69411;45.656;11.740;2024-03-17T14:47:30;19.60;61.10
64817;DHT22;69411;45.656;11.740;2024-03-17T14:49:56;19.50;61.30
64817;DHT22;69411;45.656;11.740;2024-03-17T14:52:22;19.50;61.20
64817;DHT22;69411;45.656;11.740;2024-03-17T14:54:50;19.50;61.10
64817;DHT22;69411;45.656;11.740;2024-03-17T14:57:18;19.40;61.10
64817;DHT22;69411;45.656;11.740;2024-03-17T14:59:45;19.30;61.30
64817;DHT22;69411;45.656;11.740;2024-03-17T15:02:11;19.30;61.60
64817;DHT22;69411;45.656;11.740;2024-03-17T15:04:37;19.20;61.60
64817;DHT22;69411;45.656;11.740;2024-03-17T15:07:04;19.20;61.60
64817;DHT22;69411;45.656;11.740;2024-03-17T15:09:31;19.10;62.00
64817;DHT22;69411;45.656;11.740;2024-03-17T15:11:58;19.10;62.20
64817;DHT22;69411;45.656;11.740;2024-03-17T15:14:24;19.10;62.40
64817;DHT22;69411;45.656;11.740;2024-03-17T15:16:51;19.10;62.50
64817;DHT22;69411;45.656;11.740;2024-03-17T15:19:18;19.10;62.90
64817;DHT22;69411;45.656;11.740;2024-03-17T15:21:45;19.00;63.20
64817;DHT22;69411;45.656;11.740;2024-03-17T15:24:11;19.00;63.10
64817;DHT22;69411;45.656;11.740;2024-03-17T15:26:38;18.90;63.00
64817;DHT22;69411;45.656;11.740;2024-03-17T15:29:05;18.90;63.20
64817;DHT22;69411;45.656;11.740;2024-03-17T15:31:31;18.90;63.30
64817;DHT22;69411;45.656;11.740;2024-03-17T15:33:57;18.90;63.60